sensor_id;sensor_type;location;lat;lon;timestamp;P1;durP1;ratioP1;P2;durP2;ratioP2
7729;SDS011;3908;52.310;7.230;2023-04-25T00:01:42;12.30;;;4.13;;
7729;SDS011;3908;52.310;7.230;2023-04-25T00:04:29;13.77;;;4.47;;
7729;SDS011;3908;52.310;7.230;2023-04-25T00:07:18;8.77;;;3.90;;
7729;SDS011;3908;52.310;7.230;2023-04-25T00:10:05;11.00;;;4.00;;
7729;SDS011;3908;52.310;7.230;2023-04-25T00:12:53;14.30;;;4.70;;
7729;SDS011;3908;52.310;7.230;2023-04-25T00:15:42;12.30;;;3.97;;
7729;SDS011;3908;52.310;7.230;2023-04-25T00:18:28;16.17;;;4.57;;
7729;SDS011;3908;52.310;7.230;2023-04-25T00:21:15;10.83;;;4.07;;
7729;SDS011;3908;52.310;7.230;2023-04-25T00:24:03;19.70;;;4.57;;
7729;SDS011;3908;52.310;7.230;2023-04-25T00:26:50;13.90;;;4.70;;
7729;SDS011;3908;52.310;7.230;2023-04-25T00:29:37;15.03;;;4.97;;
7729;SDS011;3908;52.310;7.230;2023-04-25T00:32:25;12.50;;;4.47;;
7729;SDS011;3908;52.310;7.230;2023-04-25T00:35:12;12.50;;;4.40;;
7729;SDS011;3908;52.310;7.230;2023-04-25T00:37:58;12.10;;;4.70;;
7729;SDS011;3908;52.310;7.230;2023-04-25T00:40:45;21.63;;;5.57;;
7729;SDS011;3908;52.310;7.230;2023-04-25T00:43:32;13.73;;;4.80;;
7729;SDS011;3908;52.310;7.230;2023-04-25T00:46:20;15.47;;;4.20;;
7729;SDS011;3908;52.310;7.230;2023-04-25T00:49:08;12.47;;;4.70;;
7729;SDS011;3908;52.310;7.230;2023-04-25T00:52:00;21.33;;;4.80;;
7729;SDS011;3908;52.310;7.230;2023-04-25T00:54:47;21.90;;;4.73;;
7729;SDS011;3908;52.310;7.230;2023-04-25T00:57:34;16.90;;;5.07;;
7729;SDS011;3908;52.310;7.230;2023-04-25T01:00:21;18.97;;;5.10;;
7729;SDS011;3908;52.310;7.230;2023-04-25T01:03:07;14.83;;;5.37;;
7729;SDS011;3908;52.310;7.230;2023-04-25T01:05:57;18.77;;;4.60;;
7729;SDS011;3908;52.310;7.230;2023-04-25T01:08:43;13.83;;;4.50;;
7729;SDS011;3908;52.310;7.230;2023-04-25T01:11:30;18.87;;;4.40;;
7729;SDS011;3908;52.310;7.230;2023-04-25T01:14:17;15.33;;;4.87;;
7729;SDS011;3908;52.310;7.230;2023-04-25T01:17:04;24.23;;;5.03;;
7729;SDS011;3908;52.310;7.230;2023-04-25T01:19:52;22.13;;;5.83;;
7729;SDS011;3908;52.310;7.230;2023-04-25T01:22:41;15.43;;;4.20;;
7729;SDS011;3908;52.310;7.230;2023-04-25T01:25:28;20.27;;;4.80;;
7729;SDS011;3908;52.310;7.230;2023-04-25T01:28:15;15.50;;;4.47;;
7729;SDS011;3908;52.310;7.230;2023-04-25T01:31:02;13.83;;;4.07;;
7729;SDS011;3908;52.310;7.230;2023-04-25T01:33:49;16.93;;;4.43;;
7729;SDS011;3908;52.310;7.230;2023-04-25T01:36:36;23.80;;;5.57;;
7729;SDS011;3908;52.310;7.230;2023-04-25T01:39:24;11.53;;;4.57;;
7729;SDS011;3908;52.310;7.230;2023-04-25T01:42:11;13.77;;;4.63;;
7729;SDS011;3908;52.310;7.230;2023-04-25T01:44:59;14.40;;;4.37;;
7729;SDS011;3908;52.310;7.230;2023-04-25T01:47:46;22.43;;;4.47;;
7729;SDS011;3908;52.310;7.230;2023-04-25T01:50:34;13.90;;;4.27;;
7729;SDS011;3908;52.310;7.230;2023-04-25T01:53:21;14.50;;;4.53;;
7729;SDS011;3908;52.310;7.230;2023-04-25T01:56:10;21.33;;;4.63;;
7729;SDS011;3908;52.310;7.230;2023-04-25T01:58:57;16.53;;;4.43;;
7729;SDS011;3908;52.310;7.230;2023-04-25T02:01:44;11.13;;;3.77;;
7729;SDS011;3908;52.310;7.230;2023-04-25T02:04:30;11.03;;;4.00;;
7729;SDS011;3908;52.310;7.230;2023-04-25T02:07:17;21.53;;;4.63;;
7729;SDS011;3908;52.310;7.230;2023-04-25T02:10:04;15.57;;;3.67;;
7729;SDS011;3908;52.310;7.230;2023-04-25T02:12:53;19.43;;;6.20;;
7729;SDS011;3908;52.310;7.230;2023-04-25T02:15:39;22.83;;;4.83;;
7729;SDS011;3908;52.310;7.230;2023-04-25T02:18:26;15.93;;;3.97;;
7729;SDS011;3908;52.310;7.230;2023-04-25T02:21:13;18.50;;;4.27;;
7729;SDS011;3908;52.310;7.230;2023-04-25T02:24:00;14.03;;;3.73;;
7729;SDS011;3908;52.310;7.230;2023-04-25T02:26:47;20.73;;;4.30;;
7729;SDS011;3908;52.310;7.230;2023-04-25T02:29:36;13.67;;;3.93;;
7729;SDS011;3908;52.310;7.230;2023-04-25T02:32:23;18.07;;;4.57;;
7729;SDS011;3908;52.310;7.230;2023-04-25T02:35:09;15.47;;;3.87;;
7729;SDS011;3908;52.310;7.230;2023-04-25T02:37:56;17.40;;;4.50;;
7729;SDS011;3908;52.310;7.230;2023-04-25T02:40:43;17.37;;;4.43;;
7729;SDS011;3908;52.310;7.230;2023-04-25T02:43:30;18.93;;;4.67;;
7729;SDS011;3908;52.310;7.230;2023-04-25T02:46:18;21.87;;;4.63;;
7729;SDS011;3908;52.310;7.230;2023-04-25T02:49:05;14.90;;;3.77;;
7729;SDS011;3908;52.310;7.230;2023-04-25T02:51:51;14.07;;;3.87;;
7729;SDS011;3908;52.310;7.230;2023-04-25T02:54:39;13.20;;;3.80;;
7729;SDS011;3908;52.310;7.230;2023-04-25T02:57:26;22.87;;;4.73;;
7729;SDS011;3908;52.310;7.230;2023-04-25T03:00:13;16.80;;;3.97;;
7729;SDS011;3908;52.310;7.230;2023-04-25T03:03:02;19.60;;;5.33;;
7729;SDS011;3908;52.310;7.230;2023-04-25T03:05:48;21.97;;;4.40;;
7729;SDS011;3908;52.310;7.230;2023-04-25T03:08:35;10.00;;;4.03;;
7729;SDS011;3908;52.310;7.230;2023-04-25T03:11:25;18.30;;;5.50;;
7729;SDS011;3908;52.310;7.230;2023-04-25T03:14:12;18.03;;;4.30;;
7729;SDS011;3908;52.310;7.230;2023-04-25T03:16:59;17.33;;;4.47;;
7729;SDS011;3908;52.310;7.230;2023-04-25T03:19:47;17.73;;;4.17;;
7729;SDS011;3908;52.310;7.230;2023-04-25T03:22:34;11.33;;;3.73;;
7729;SDS011;3908;52.310;7.230;2023-04-25T03:25:21;21.30;;;4.43;;
7729;SDS011;3908;52.310;7.230;2023-04-25T03:28:07;12.73;;;4.03;;
7729;SDS011;3908;52.310;7.230;2023-04-25T03:30:54;15.43;;;4.17;;
7729;SDS011;3908;52.310;7.230;2023-04-25T03:33:41;17.43;;;4.43;;
7729;SDS011;3908;52.310;7.230;2023-04-25T03:36:29;18.93;;;4.57;;
7729;SDS011;3908;52.310;7.230;2023-04-25T03:39:16;17.17;;;5.07;;
7729;SDS011;3908;52.310;7.230;2023-04-25T03:42:03;9.27;;;3.40;;
7729;SDS011;3908;52.310;7.230;2023-04-25T03:44:50;17.53;;;4.30;;
7729;SDS011;3908;52.310;7.230;2023-04-25T03:47:37;15.30;;;4.87;;
7729;SDS011;3908;52.310;7.230;2023-04-25T03:50:24;11.23;;;4.27;;
7729;SDS011;3908;52.310;7.230;2023-04-25T03:53:12;19.90;;;4.57;;
7729;SDS011;3908;52.310;7.230;2023-04-25T03:55:59;13.87;;;4.70;;
7729;SDS011;3908;52.310;7.230;2023-04-25T03:58:46;20.17;;;4.57;;
7729;SDS011;3908;52.310;7.230;2023-04-25T04:01:32;13.93;;;4.37;;
7729;SDS011;3908;52.310;7.230;2023-04-25T04:04:19;16.20;;;4.83;;
7729;SDS011;3908;52.310;7.230;2023-04-25T04:07:06;15.53;;;4.10;;
7729;SDS011;3908;52.310;7.230;2023-04-25T04:09:54;13.40;;;4.20;;
7729;SDS011;3908;52.310;7.230;2023-04-25T04:12:41;16.37;;;3.73;;
7729;SDS011;3908;52.310;7.230;2023-04-25T04:15:28;11.83;;;3.90;;
7729;SDS011;3908;52.310;7.230;2023-04-25T04:18:18;19.77;;;3.77;;
7729;SDS011;3908;52.310;7.230;2023-04-25T04:21:05;11.23;;;3.63;;
7729;SDS011;3908;52.310;7.230;2023-04-25T04:23:51;17.23;;;3.53;;
7729;SDS011;3908;52.310;7.230;2023-04-25T04:26:41;10.40;;;4.67;;
7729;SDS011;3908;52.310;7.230;2023-04-25T04:29:30;13.20;;;3.70;;
7729;SDS011;3908;52.310;7.230;2023-04-25T04:32:17;13.90;;;4.43;;
7729;SDS011;3908;52.310;7.230;2023-04-25T04:35:04;11.80;;;3.40;;
7729;SDS011;3908;52.310;7.230;2023-04-25T04:37:51;12.07;;;3.63;;
7729;SDS011;3908;52.310;7.230;2023-04-25T04:40:38;14.50;;;3.33;;
7729;SDS011;3908;52.310;7.230;2023-04-25T04:43:26;16.00;;;3.70;;
7729;SDS011;3908;52.310;7.230;2023-04-25T04:46:13;15.27;;;3.87;;
7729;SDS011;3908;52.310;7.230;2023-04-25T04:49:01;13.83;;;4.87;;
7729;SDS011;3908;52.310;7.230;2023-04-25T04:51:48;18.83;;;3.27;;
7729;SDS011;3908;52.310;7.230;2023-04-25T04:54:35;17.90;;;3.90;;
7729;SDS011;3908;52.310;7.230;2023-04-25T04:57:22;13.10;;;3.10;;
7729;SDS011;3908;52.310;7.230;2023-04-25T05:00:11;11.87;;;3.27;;
7729;SDS011;3908;52.310;7.230;2023-04-25T05:02:58;8.13;;;3.40;;
7729;SDS011;3908;52.310;7.230;2023-04-25T05:05:45;14.73;;;3.00;;
7729;SDS011;3908;52.310;7.230;2023-04-25T05:08:31;9.27;;;3.80;;
7729;SDS011;3908;52.310;7.230;2023-04-25T05:11:18;14.30;;;4.03;;
7729;SDS011;3908;52.310;7.230;2023-04-25T05:14:06;16.10;;;4.10;;
7729;SDS011;3908;52.310;7.230;2023-04-25T05:16:54;15.53;;;3.30;;
7729;SDS011;3908;52.310;7.230;2023-04-25T05:19:41;10.27;;;2.90;;
7729;SDS011;3908;52.310;7.230;2023-04-25T05:22:27;10.17;;;2.87;;
7729;SDS011;3908;52.310;7.230;2023-04-25T05:25:14;14.63;;;3.30;;
7729;SDS011;3908;52.310;7.230;2023-04-25T05:28:01;9.03;;;3.13;;
7729;SDS011;3908;52.310;7.230;2023-04-25T05:30:48;16.40;;;3.00;;
7729;SDS011;3908;52.310;7.230;2023-04-25T05:33:36;14.90;;;3.10;;
7729;SDS011;3908;52.310;7.230;2023-04-25T05:36:23;13.83;;;2.90;;
7729;SDS011;3908;52.310;7.230;2023-04-25T05:39:10;11.20;;;3.03;;
7729;SDS011;3908;52.310;7.230;2023-04-25T05:41:56;10.00;;;3.50;;
7729;SDS011;3908;52.310;7.230;2023-04-25T05:44:44;13.60;;;2.70;;
7729;SDS011;3908;52.310;7.230;2023-04-25T05:47:30;16.27;;;3.10;;
7729;SDS011;3908;52.310;7.230;2023-04-25T05:50:19;9.60;;;2.53;;
7729;SDS011;3908;52.310;7.230;2023-04-25T05:53:06;11.10;;;3.37;;
7729;SDS011;3908;52.310;7.230;2023-04-25T05:55:52;11.23;;;2.63;;
7729;SDS011;3908;52.310;7.230;2023-04-25T05:58:39;13.60;;;2.60;;
7729;SDS011;3908;52.310;7.230;2023-04-25T06:01:26;14.23;;;2.47;;
7729;SDS011;3908;52.310;7.230;2023-04-25T06:04:13;8.20;;;2.63;;
7729;SDS011;3908;52.310;7.230;2023-04-25T06:07:01;10.23;;;2.93;;
7729;SDS011;3908;52.310;7.230;2023-04-25T06:09:48;7.00;;;3.27;;
7729;SDS011;3908;52.310;7.230;2023-04-25T06:12:34;9.03;;;2.23;;
7729;SDS011;3908;52.310;7.230;2023-04-25T06:15:21;7.50;;;2.07;;
7729;SDS011;3908;52.310;7.230;2023-04-25T06:18:08;11.57;;;2.10;;
7729;SDS011;3908;52.310;7.230;2023-04-25T06:20:55;5.53;;;2.10;;
7729;SDS011;3908;52.310;7.230;2023-04-25T06:23:44;11.93;;;2.47;;
7729;SDS011;3908;52.310;7.230;2023-04-25T06:26:30;8.17;;;3.20;;
7729;SDS011;3908;52.310;7.230;2023-04-25T06:29:17;7.80;;;2.20;;
7729;SDS011;3908;52.310;7.230;2023-04-25T06:32:04;9.37;;;2.30;;
7729;SDS011;3908;52.310;7.230;2023-04-25T06:34:51;5.70;;;2.40;;
7729;SDS011;3908;52.310;7.230;2023-04-25T06:37:38;11.40;;;2.07;;
7729;SDS011;3908;52.310;7.230;2023-04-25T06:40:26;8.97;;;2.13;;
7729;SDS011;3908;52.310;7.230;2023-04-25T06:43:13;11.00;;;2.70;;
7729;SDS011;3908;52.310;7.230;2023-04-25T06:45:59;8.67;;;2.70;;
7729;SDS011;3908;52.310;7.230;2023-04-25T06:48:46;11.07;;;2.63;;
7729;SDS011;3908;52.310;7.230;2023-04-25T06:51:33;5.37;;;2.10;;
7729;SDS011;3908;52.310;7.230;2023-04-25T06:54:20;8.47;;;2.50;;
7729;SDS011;3908;52.310;7.230;2023-04-25T06:57:08;12.40;;;2.90;;
7729;SDS011;3908;52.310;7.230;2023-04-25T06:59:55;8.53;;;2.43;;
7729;SDS011;3908;52.310;7.230;2023-04-25T07:02:41;10.40;;;2.77;;
7729;SDS011;3908;52.310;7.230;2023-04-25T07:05:28;10.07;;;2.53;;
7729;SDS011;3908;52.310;7.230;2023-04-25T07:08:15;10.00;;;2.97;;
7729;SDS011;3908;52.310;7.230;2023-04-25T07:11:02;11.10;;;2.67;;
7729;SDS011;3908;52.310;7.230;2023-04-25T07:13:50;13.00;;;3.20;;
7729;SDS011;3908;52.310;7.230;2023-04-25T07:16:37;9.13;;;2.27;;
7729;SDS011;3908;52.310;7.230;2023-04-25T07:19:24;9.27;;;2.63;;
7729;SDS011;3908;52.310;7.230;2023-04-25T07:22:12;12.53;;;2.97;;
7729;SDS011;3908;52.310;7.230;2023-04-25T07:24:58;10.73;;;2.27;;
7729;SDS011;3908;52.310;7.230;2023-04-25T07:27:45;14.77;;;2.37;;
7729;SDS011;3908;52.310;7.230;2023-04-25T07:30:33;10.60;;;2.40;;
7729;SDS011;3908;52.310;7.230;2023-04-25T07:33:20;10.07;;;3.73;;
7729;SDS011;3908;52.310;7.230;2023-04-25T07:36:07;8.97;;;2.40;;
7729;SDS011;3908;52.310;7.230;2023-04-25T07:38:54;8.87;;;1.80;;
7729;SDS011;3908;52.310;7.230;2023-04-25T07:41:41;13.10;;;2.20;;
7729;SDS011;3908;52.310;7.230;2023-04-25T07:44:27;9.13;;;2.57;;
7729;SDS011;3908;52.310;7.230;2023-04-25T07:47:17;10.23;;;1.97;;
7729;SDS011;3908;52.310;7.230;2023-04-25T07:50:05;6.70;;;1.93;;
7729;SDS011;3908;52.310;7.230;2023-04-25T07:52:52;11.20;;;2.07;;
7729;SDS011;3908;52.310;7.230;2023-04-25T07:55:39;6.90;;;1.70;;
7729;SDS011;3908;52.310;7.230;2023-04-25T07:58:26;11.87;;;2.10;;
7729;SDS011;3908;52.310;7.230;2023-04-25T08:01:12;9.63;;;1.90;;
7729;SDS011;3908;52.310;7.230;2023-04-25T08:04:01;6.90;;;2.00;;
7729;SDS011;3908;52.310;7.230;2023-04-25T08:06:47;8.33;;;1.97;;
7729;SDS011;3908;52.310;7.230;2023-04-25T08:09:34;2.97;;;1.47;;
7729;SDS011;3908;52.310;7.230;2023-04-25T08:12:22;5.60;;;2.10;;
7729;SDS011;3908;52.310;7.230;2023-04-25T08:15:09;9.43;;;2.10;;
7729;SDS011;3908;52.310;7.230;2023-04-25T08:17:56;7.70;;;2.47;;
7729;SDS011;3908;52.310;7.230;2023-04-25T08:20:44;5.97;;;2.23;;
7729;SDS011;3908;52.310;7.230;2023-04-25T08:23:30;8.33;;;1.80;;
7729;SDS011;3908;52.310;7.230;2023-04-25T08:26:17;6.57;;;2.20;;
7729;SDS011;3908;52.310;7.230;2023-04-25T08:29:04;5.33;;;1.50;;
7729;SDS011;3908;52.310;7.230;2023-04-25T08:31:51;5.10;;;1.80;;
7729;SDS011;3908;52.310;7.230;2023-04-25T08:34:38;5.20;;;1.80;;
7729;SDS011;3908;52.310;7.230;2023-04-25T08:37:28;5.33;;;1.50;;
7729;SDS011;3908;52.310;7.230;2023-04-25T08:40:15;5.53;;;1.70;;
7729;SDS011;3908;52.310;7.230;2023-04-25T08:43:02;9.97;;;1.90;;
7729;SDS011;3908;52.310;7.230;2023-04-25T08:45:49;7.53;;;1.80;;
7729;SDS011;3908;52.310;7.230;2023-04-25T08:48:39;6.83;;;2.20;;
7729;SDS011;3908;52.310;7.230;2023-04-25T08:51:27;2.97;;;1.50;;
7729;SDS011;3908;52.310;7.230;2023-04-25T08:54:18;3.43;;;1.73;;
7729;SDS011;3908;52.310;7.230;2023-04-25T08:57:08;3.93;;;1.47;;
7729;SDS011;3908;52.310;7.230;2023-04-25T08:59:55;5.53;;;1.80;;
7729;SDS011;3908;52.310;7.230;2023-04-25T09:02:43;7.17;;;1.77;;
7729;SDS011;3908;52.310;7.230;2023-04-25T09:05:30;6.97;;;2.10;;
7729;SDS011;3908;52.310;7.230;2023-04-25T09:08:17;4.97;;;1.47;;
7729;SDS011;3908;52.310;7.230;2023-04-25T09:11:05;6.13;;;1.70;;
7729;SDS011;3908;52.310;7.230;2023-04-25T09:13:52;7.83;;;1.80;;
7729;SDS011;3908;52.310;7.230;2023-04-25T09:17:00;7.03;;;2.13;;
7729;SDS011;3908;52.310;7.230;2023-04-25T09:19:47;5.33;;;1.90;;
7729;SDS011;3908;52.310;7.230;2023-04-25T09:22:36;6.83;;;1.67;;
7729;SDS011;3908;52.310;7.230;2023-04-25T09:25:23;4.60;;;1.47;;
7729;SDS011;3908;52.310;7.230;2023-04-25T09:28:12;3.40;;;1.80;;
7729;SDS011;3908;52.310;7.230;2023-04-25T09:30:58;10.87;;;1.93;;
7729;SDS011;3908;52.310;7.230;2023-04-25T09:33:45;4.87;;;1.77;;
7729;SDS011;3908;52.310;7.230;2023-04-25T09:36:32;3.97;;;1.70;;
7729;SDS011;3908;52.310;7.230;2023-04-25T09:39:20;6.30;;;1.60;;
7729;SDS011;3908;52.310;7.230;2023-04-25T09:42:07;4.90;;;1.50;;
7729;SDS011;3908;52.310;7.230;2023-04-25T09:44:57;3.13;;;1.30;;
7729;SDS011;3908;52.310;7.230;2023-04-25T09:47:44;2.97;;;1.30;;
7729;SDS011;3908;52.310;7.230;2023-04-25T09:50:31;2.30;;;1.33;;
7729;SDS011;3908;52.310;7.230;2023-04-25T09:53:18;3.57;;;1.50;;
7729;SDS011;3908;52.310;7.230;2023-04-25T09:56:05;4.77;;;1.30;;
7729;SDS011;3908;52.310;7.230;2023-04-25T09:58:52;6.43;;;1.57;;
7729;SDS011;3908;52.310;7.230;2023-04-25T10:01:41;4.97;;;1.20;;
7729;SDS011;3908;52.310;7.230;2023-04-25T10:04:29;5.83;;;1.70;;
7729;SDS011;3908;52.310;7.230;2023-04-25T10:07:19;3.33;;;1.27;;
7729;SDS011;3908;52.310;7.230;2023-04-25T10:10:08;8.57;;;1.60;;
7729;SDS011;3908;52.310;7.230;2023-04-25T10:12:56;3.87;;;1.40;;
7729;SDS011;3908;52.310;7.230;2023-04-25T10:15:43;1.90;;;1.10;;
7729;SDS011;3908;52.310;7.230;2023-04-25T10:18:32;2.83;;;2.00;;
7729;SDS011;3908;52.310;7.230;2023-04-25T10:21:18;3.87;;;1.33;;
7729;SDS011;3908;52.310;7.230;2023-04-25T10:24:06;4.97;;;1.67;;
7729;SDS011;3908;52.310;7.230;2023-04-25T10:26:53;4.70;;;1.23;;
7729;SDS011;3908;52.310;7.230;2023-04-25T10:29:40;9.27;;;1.47;;
7729;SDS011;3908;52.310;7.230;2023-04-25T10:32:29;1.53;;;1.10;;
7729;SDS011;3908;52.310;7.230;2023-04-25T10:35:18;1.90;;;1.20;;
7729;SDS011;3908;52.310;7.230;2023-04-25T10:38:09;3.13;;;1.40;;
7729;SDS011;3908;52.310;7.230;2023-04-25T10:41:02;5.10;;;1.43;;
7729;SDS011;3908;52.310;7.230;2023-04-25T10:43:49;3.70;;;1.40;;
7729;SDS011;3908;52.310;7.230;2023-04-25T10:46:36;4.83;;;1.40;;
7729;SDS011;3908;52.310;7.230;2023-04-25T10:49:30;7.87;;;1.60;;
7729;SDS011;3908;52.310;7.230;2023-04-25T10:52:24;3.73;;;1.50;;
7729;SDS011;3908;52.310;7.230;2023-04-25T10:55:12;4.40;;;1.33;;
7729;SDS011;3908;52.310;7.230;2023-04-25T10:57:58;3.10;;;1.40;;
7729;SDS011;3908;52.310;7.230;2023-04-25T11:00:47;4.60;;;1.20;;
7729;SDS011;3908;52.310;7.230;2023-04-25T11:03:36;5.40;;;1.40;;
7729;SDS011;3908;52.310;7.230;2023-04-25T11:06:27;2.70;;;1.50;;
7729;SDS011;3908;52.310;7.230;2023-04-25T11:09:18;3.83;;;1.47;;
7729;SDS011;3908;52.310;7.230;2023-04-25T11:12:06;4.50;;;1.43;;
7729;SDS011;3908;52.310;7.230;2023-04-25T11:14:58;3.80;;;1.10;;
7729;SDS011;3908;52.310;7.230;2023-04-25T11:17:46;6.17;;;1.27;;
7729;SDS011;3908;52.310;7.230;2023-04-25T11:20:33;3.87;;;1.20;;
7729;SDS011;3908;52.310;7.230;2023-04-25T11:23:19;3.63;;;1.40;;
7729;SDS011;3908;52.310;7.230;2023-04-25T11:26:08;1.77;;;1.40;;
7729;SDS011;3908;52.310;7.230;2023-04-25T11:28:58;3.27;;;1.70;;
7729;SDS011;3908;52.310;7.230;2023-04-25T11:31:45;3.07;;;1.30;;
7729;SDS011;3908;52.310;7.230;2023-04-25T11:34:32;2.80;;;1.23;;
7729;SDS011;3908;52.310;7.230;2023-04-25T11:37:19;4.33;;;1.50;;
7729;SDS011;3908;52.310;7.230;2023-04-25T11:40:07;4.47;;;1.60;;
7729;SDS011;3908;52.310;7.230;2023-04-25T11:42:56;6.87;;;1.47;;
7729;SDS011;3908;52.310;7.230;2023-04-25T11:45:46;7.83;;;1.53;;
7729;SDS011;3908;52.310;7.230;2023-04-25T11:48:36;3.63;;;1.30;;
7729;SDS011;3908;52.310;7.230;2023-04-25T11:51:23;5.73;;;1.73;;
7729;SDS011;3908;52.310;7.230;2023-04-25T11:54:10;6.00;;;1.60;;
7729;SDS011;3908;52.310;7.230;2023-04-25T11:56:57;6.53;;;1.63;;
7729;SDS011;3908;52.310;7.230;2023-04-25T11:59:45;5.83;;;1.37;;
7729;SDS011;3908;52.310;7.230;2023-04-25T12:02:34;4.60;;;1.40;;
7729;SDS011;3908;52.310;7.230;2023-04-25T12:05:23;3.43;;;1.47;;
7729;SDS011;3908;52.310;7.230;2023-04-25T12:08:10;1.40;;;1.30;;
7729;SDS011;3908;52.310;7.230;2023-04-25T12:10:58;4.80;;;1.47;;
7729;SDS011;3908;52.310;7.230;2023-04-25T12:13:45;3.03;;;1.30;;
7729;SDS011;3908;52.310;7.230;2023-04-25T12:16:41;3.47;;;1.40;;
7729;SDS011;3908;52.310;7.230;2023-04-25T12:19:31;4.33;;;1.50;;
7729;SDS011;3908;52.310;7.230;2023-04-25T12:22:19;3.07;;;1.70;;
7729;SDS011;3908;52.310;7.230;2023-04-25T12:25:06;5.93;;;1.70;;
7729;SDS011;3908;52.310;7.230;2023-04-25T12:27:53;2.93;;;1.67;;
7729;SDS011;3908;52.310;7.230;2023-04-25T12:30:53;5.23;;;1.80;;
7729;SDS011;3908;52.310;7.230;2023-04-25T12:33:41;4.47;;;1.53;;
7729;SDS011;3908;52.310;7.230;2023-04-25T12:36:33;3.73;;;1.80;;
7729;SDS011;3908;52.310;7.230;2023-04-25T12:39:20;5.63;;;1.57;;
7729;SDS011;3908;52.310;7.230;2023-04-25T12:42:07;6.90;;;1.63;;
7729;SDS011;3908;52.310;7.230;2023-04-25T12:44:56;3.40;;;1.43;;
7729;SDS011;3908;52.310;7.230;2023-04-25T12:47:43;5.40;;;1.70;;
7729;SDS011;3908;52.310;7.230;2023-04-25T12:50:31;5.60;;;1.70;;
7729;SDS011;3908;52.310;7.230;2023-04-25T12:53:19;8.40;;;1.97;;
7729;SDS011;3908;52.310;7.230;2023-04-25T12:56:06;5.13;;;1.40;;
7729;SDS011;3908;52.310;7.230;2023-04-25T12:58:53;2.67;;;1.50;;
7729;SDS011;3908;52.310;7.230;2023-04-25T13:01:42;7.10;;;1.77;;
7729;SDS011;3908;52.310;7.230;2023-04-25T13:04:29;3.47;;;2.00;;
7729;SDS011;3908;52.310;7.230;2023-04-25T13:07:19;2.67;;;1.83;;
7729;SDS011;3908;52.310;7.230;2023-04-25T13:13:43;5.97;;;1.70;;
7729;SDS011;3908;52.310;7.230;2023-04-25T13:16:30;3.33;;;1.37;;
7729;SDS011;3908;52.310;7.230;2023-04-25T13:19:19;4.67;;;1.63;;
7729;SDS011;3908;52.310;7.230;2023-04-25T13:22:08;4.73;;;1.53;;
7729;SDS011;3908;52.310;7.230;2023-04-25T13:28:15;5.00;;;1.67;;
7729;SDS011;3908;52.310;7.230;2023-04-25T13:31:02;4.67;;;1.17;;
7729;SDS011;3908;52.310;7.230;2023-04-25T13:33:50;1.93;;;1.10;;
7729;SDS011;3908;52.310;7.230;2023-04-25T13:36:52;2.97;;;1.23;;
7729;SDS011;3908;52.310;7.230;2023-04-25T13:39:40;3.53;;;1.77;;
7729;SDS011;3908;52.310;7.230;2023-04-25T13:42:26;5.53;;;1.37;;
7729;SDS011;3908;52.310;7.230;2023-04-25T13:45:15;5.77;;;1.63;;
7729;SDS011;3908;52.310;7.230;2023-04-25T13:48:02;4.80;;;1.43;;
7729;SDS011;3908;52.310;7.230;2023-04-25T13:50:49;2.10;;;1.20;;
7729;SDS011;3908;52.310;7.230;2023-04-25T13:53:37;3.03;;;1.40;;
7729;SDS011;3908;52.310;7.230;2023-04-25T13:56:24;7.87;;;1.63;;
7729;SDS011;3908;52.310;7.230;2023-04-25T13:59:10;4.33;;;1.30;;
7729;SDS011;3908;52.310;7.230;2023-04-25T14:01:59;4.20;;;1.43;;
7729;SDS011;3908;52.310;7.230;2023-04-25T14:04:45;5.87;;;1.40;;
7729;SDS011;3908;52.310;7.230;2023-04-25T14:07:33;4.53;;;1.63;;
7729;SDS011;3908;52.310;7.230;2023-04-25T14:10:20;8.43;;;2.20;;
7729;SDS011;3908;52.310;7.230;2023-04-25T14:13:07;5.33;;;1.50;;
7729;SDS011;3908;52.310;7.230;2023-04-25T14:15:53;5.03;;;2.33;;
7729;SDS011;3908;52.310;7.230;2023-04-25T14:18:42;9.20;;;1.60;;
7729;SDS011;3908;52.310;7.230;2023-04-25T14:21:29;5.20;;;1.93;;
7729;SDS011;3908;52.310;7.230;2023-04-25T14:24:18;6.67;;;1.70;;
7729;SDS011;3908;52.310;7.230;2023-04-25T14:27:08;8.67;;;1.70;;
7729;SDS011;3908;52.310;7.230;2023-04-25T14:29:55;4.40;;;1.27;;
7729;SDS011;3908;52.310;7.230;2023-04-25T14:32:42;3.83;;;1.67;;
7729;SDS011;3908;52.310;7.230;2023-04-25T14:35:34;8.23;;;1.70;;
7729;SDS011;3908;52.310;7.230;2023-04-25T14:38:21;3.80;;;1.33;;
7729;SDS011;3908;52.310;7.230;2023-04-25T14:41:09;2.53;;;1.30;;
7729;SDS011;3908;52.310;7.230;2023-04-25T14:43:58;2.73;;;1.30;;
7729;SDS011;3908;52.310;7.230;2023-04-25T14:46:45;5.30;;;1.50;;
7729;SDS011;3908;52.310;7.230;2023-04-25T14:49:32;5.83;;;1.77;;
7729;SDS011;3908;52.310;7.230;2023-04-25T14:52:20;5.97;;;1.50;;
7729;SDS011;3908;52.310;7.230;2023-04-25T14:55:07;4.93;;;1.87;;
7729;SDS011;3908;52.310;7.230;2023-04-25T14:57:54;6.30;;;1.50;;
7729;SDS011;3908;52.310;7.230;2023-04-25T15:00:41;7.50;;;2.20;;
7729;SDS011;3908;52.310;7.230;2023-04-25T15:03:28;3.03;;;1.63;;
7729;SDS011;3908;52.310;7.230;2023-04-25T15:06:15;5.57;;;2.17;;
7729;SDS011;3908;52.310;7.230;2023-04-25T15:09:03;4.63;;;1.40;;
7729;SDS011;3908;52.310;7.230;2023-04-25T15:11:50;2.67;;;1.80;;
7729;SDS011;3908;52.310;7.230;2023-04-25T15:14:37;4.80;;;1.63;;
7729;SDS011;3908;52.310;7.230;2023-04-25T15:17:24;5.33;;;1.70;;
7729;SDS011;3908;52.310;7.230;2023-04-25T15:20:11;3.17;;;1.33;;
7729;SDS011;3908;52.310;7.230;2023-04-25T15:22:59;2.70;;;1.40;;
7729;SDS011;3908;52.310;7.230;2023-04-25T15:25:51;7.20;;;1.73;;
7729;SDS011;3908;52.310;7.230;2023-04-25T15:28:38;2.47;;;1.20;;
7729;SDS011;3908;52.310;7.230;2023-04-25T15:31:25;8.73;;;1.83;;
7729;SDS011;3908;52.310;7.230;2023-04-25T15:34:11;8.47;;;1.80;;
7729;SDS011;3908;52.310;7.230;2023-04-25T15:36:58;4.63;;;1.50;;
7729;SDS011;3908;52.310;7.230;2023-04-25T15:39:45;5.03;;;1.60;;
7729;SDS011;3908;52.310;7.230;2023-04-25T15:42:33;7.37;;;1.93;;
7729;SDS011;3908;52.310;7.230;2023-04-25T15:45:20;5.97;;;1.30;;
7729;SDS011;3908;52.310;7.230;2023-04-25T15:48:08;5.63;;;2.40;;
7729;SDS011;3908;52.310;7.230;2023-04-25T15:50:55;6.47;;;1.70;;
7729;SDS011;3908;52.310;7.230;2023-04-25T15:53:42;5.60;;;1.60;;
7729;SDS011;3908;52.310;7.230;2023-04-25T15:56:28;3.60;;;1.60;;
7729;SDS011;3908;52.310;7.230;2023-04-25T15:59:17;4.07;;;1.40;;
7729;SDS011;3908;52.310;7.230;2023-04-25T16:02:04;4.90;;;1.60;;
7729;SDS011;3908;52.310;7.230;2023-04-25T16:04:51;4.07;;;1.30;;
7729;SDS011;3908;52.310;7.230;2023-04-25T16:07:38;2.17;;;1.40;;
7729;SDS011;3908;52.310;7.230;2023-04-25T16:10:25;6.23;;;2.03;;
7729;SDS011;3908;52.310;7.230;2023-04-25T16:13:12;10.13;;;1.67;;
7729;SDS011;3908;52.310;7.230;2023-04-25T16:16:00;6.13;;;2.10;;
7729;SDS011;3908;52.310;7.230;2023-04-25T16:18:47;4.13;;;1.47;;
7729;SDS011;3908;52.310;7.230;2023-04-25T16:21:33;4.70;;;1.60;;
7729;SDS011;3908;52.310;7.230;2023-04-25T16:24:20;2.83;;;1.40;;
7729;SDS011;3908;52.310;7.230;2023-04-25T16:27:07;4.90;;;1.30;;
7729;SDS011;3908;52.310;7.230;2023-04-25T16:29:54;3.50;;;1.47;;
7729;SDS011;3908;52.310;7.230;2023-04-25T16:32:42;6.90;;;1.60;;
7729;SDS011;3908;52.310;7.230;2023-04-25T16:35:29;9.13;;;1.80;;
7729;SDS011;3908;52.310;7.230;2023-04-25T16:38:16;7.10;;;1.57;;
7729;SDS011;3908;52.310;7.230;2023-04-25T16:41:03;4.97;;;1.63;;
7729;SDS011;3908;52.310;7.230;2023-04-25T16:43:50;6.07;;;1.57;;
7729;SDS011;3908;52.310;7.230;2023-04-25T16:46:37;3.93;;;2.37;;
7729;SDS011;3908;52.310;7.230;2023-04-25T16:49:25;6.20;;;2.00;;
7729;SDS011;3908;52.310;7.230;2023-04-25T16:52:12;5.53;;;1.83;;
7729;SDS011;3908;52.310;7.230;2023-04-25T16:55:00;8.20;;;1.83;;
7729;SDS011;3908;52.310;7.230;2023-04-25T16:57:47;8.93;;;2.10;;
7729;SDS011;3908;52.310;7.230;2023-04-25T17:00:34;6.73;;;1.80;;
7729;SDS011;3908;52.310;7.230;2023-04-25T17:03:20;7.60;;;1.90;;
7729;SDS011;3908;52.310;7.230;2023-04-25T17:06:08;7.00;;;2.03;;
7729;SDS011;3908;52.310;7.230;2023-04-25T17:08:55;9.90;;;2.00;;
7729;SDS011;3908;52.310;7.230;2023-04-25T17:11:42;6.07;;;1.93;;
7729;SDS011;3908;52.310;7.230;2023-04-25T17:14:29;3.57;;;1.60;;
7729;SDS011;3908;52.310;7.230;2023-04-25T17:17:17;6.83;;;1.63;;
7729;SDS011;3908;52.310;7.230;2023-04-25T17:20:06;6.47;;;1.63;;
7729;SDS011;3908;52.310;7.230;2023-04-25T17:22:55;7.97;;;1.73;;